Time;durP1;ratioP1;P1;durP2;ratioP2;P2;SDS_P1;SDS_P2;PMS_P1;PMS_P2;Temp;Humidity;BMP_temperature;BMP_pressure;BME280_temperature;BME280_humidity;BME280_pressure;Samples;Min_cycle;Max_cycle;Signal;HPM_P1;HPM_P2
2021/01/08 00:02:18;;;;;;;2.35;1.10;;;2.10;99.90;;;;;;5074484;28;20726;-59
2021/01/08 00:04:45;;;;;;;2.85;1.20;;;2.00;99.90;;;;;;5073834;28;20526;-61
2021/01/08 00:07:12;;;;;;;2.55;1.05;;;2.00;99.90;;;;;;5074743;28;20842;-59
2021/01/08 00:09:40;;;;;;;2.10;0.90;;;2.00;99.90;;;;;;5074290;28;20507;-59
2021/01/08 00:12:07;;;;;;;2.97;1.27;;;2.00;99.90;;;;;;5073681;28;20431;-59
2021/01/08 00:14:33;;;;;;;2.80;1.10;;;2.00;99.90;;;;;;5073121;28;20426;-59
2021/01/08 00:16:59;;;;;;;2.40;1.00;;;2.00;99.90;;;;;;5074151;28;20431;-60
2021/01/08 00:19:27;;;;;;;2.45;1.13;;;1.90;99.90;;;;;;5073647;28;20474;-59
2021/01/08 00:21:53;;;;;;;2.90;1.20;;;2.10;99.90;;;;;;5073248;28;20427;-59
2021/01/08 00:24:20;;;;;;;3.78;1.10;;;2.10;99.90;;;;;;5071927;28;20431;-59
2021/01/08 00:26:48;;;;;;;2.70;1.20;;;2.10;99.90;;;;;;5072067;28;20911;-59
2021/01/08 00:29:16;;;;;;;2.72;1.10;;;2.10;99.90;;;;;;5071598;28;20424;-59
2021/01/08 00:31:43;;;;;;;4.18;1.40;;;2.00;99.90;;;;;;5072716;28;20527;-60
2021/01/08 00:34:11;;;;;;;2.10;1.10;;;2.00;99.90;;;;;;5072532;28;20427;-60
2021/01/08 00:36:37;;;;;;;2.70;1.30;;;2.00;99.90;;;;;;5071151;28;20841;-60
2021/01/08 00:39:05;;;;;;;3.40;1.20;;;2.10;99.90;;;;;;5071790;28;20415;-60
2021/01/08 00:41:33;;;;;;;3.10;1.00;;;2.10;99.90;;;;;;5072968;28;20423;-62
2021/01/08 00:44:00;;;;;;;2.45;1.20;;;2.10;99.90;;;;;;5072248;28;20502;-60
2021/01/08 00:46:31;;;;;;;3.15;1.00;;;2.10;99.90;;;;;;5072371;28;20431;-60
2021/01/08 00:48:58;;;;;;;2.40;1.00;;;2.00;99.90;;;;;;5071996;28;20419;-59
2021/01/08 00:51:24;;;;;;;2.05;0.90;;;2.00;99.90;;;;;;5071720;28;20427;-59
2021/01/08 00:53:50;;;;;;;2.38;0.90;;;2.10;99.90;;;;;;5071576;28;20446;-59
2021/01/08 00:56:18;;;;;;;2.10;1.00;;;2.20;99.90;;;;;;5070667;28;20427;-59
2021/01/08 00:58:44;;;;;;;2.40;0.90;;;2.20;99.90;;;;;;5070937;28;20517;-60
2021/01/08 01:01:12;;;;;;;2.00;1.00;;;2.30;99.90;;;;;;5069892;28;20427;-59
2021/01/08 01:03:38;;;;;;;1.85;0.90;;;2.30;99.90;;;;;;5071946;28;20861;-59
2021/01/08 01:06:05;;;;;;;1.55;0.90;;;2.40;99.90;;;;;;5072640;28;20423;-59
2021/01/08 01:08:31;;;;;;;1.55;0.90;;;2.30;99.90;;;;;;5073135;28;20455;-60
2021/01/08 01:10:57;;;;;;;1.57;0.90;;;2.20;99.90;;;;;;5073922;28;20506;-59
2021/01/08 01:13:24;;;;;;;1.48;0.80;;;2.30;99.90;;;;;;5073649;28;20668;-61
2021/01/08 01:15:50;;;;;;;2.60;0.90;;;2.50;99.90;;;;;;5073234;28;20711;-60
2021/01/08 01:18:18;;;;;;;1.40;0.80;;;2.70;99.90;;;;;;5073379;28;20851;-59
2021/01/08 01:20:44;;;;;;;1.50;0.80;;;3.00;99.90;;;;;;5073440;28;20420;-59
2021/01/08 01:23:11;;;;;;;1.50;0.90;;;3.20;99.90;;;;;;5073139;28;20505;-60
2021/01/08 01:25:37;;;;;;;1.20;0.80;;;3.30;99.90;;;;;;5071723;28;20420;-59
2021/01/08 01:28:04;;;;;;;1.70;0.90;;;2.90;99.90;;;;;;5071776;28;20855;-59
2021/01/08 01:30:31;;;;;;;1.23;0.80;;;2.70;99.90;;;;;;5071640;28;20418;-59
2021/01/08 01:32:58;;;;;;;1.35;0.80;;;2.70;99.90;;;;;;5075270;28;20681;-59
2021/01/08 01:35:25;;;;;;;2.20;0.90;;;2.60;99.90;;;;;;5075196;28;20466;-61
2021/01/08 01:37:52;;;;;;;2.25;0.95;;;2.70;99.90;;;;;;5075106;28;20431;-59
2021/01/08 01:40:19;;;;;;;1.60;0.90;;;2.50;99.90;;;;;;5075541;28;20498;-59
2021/01/08 01:42:47;;;;;;;2.20;1.00;;;2.40;99.90;;;;;;5075824;28;20430;-59
2021/01/08 01:45:14;;;;;;;1.90;0.90;;;2.30;99.90;;;;;;5074571;28;20415;-59
2021/01/08 01:47:41;;;;;;;2.10;0.80;;;2.20;99.90;;;;;;5074804;28;20879;-59
2021/01/08 01:50:09;;;;;;;2.22;1.00;;;2.00;99.90;;;;;;5073966;28;20620;-59
2021/01/08 01:52:37;;;;;;;2.15;1.00;;;1.90;99.90;;;;;;5075546;28;20441;-59
2021/01/08 01:55:05;;;;;;;2.27;0.83;;;1.80;99.90;;;;;;5075097;28;20420;-59
2021/01/08 01:57:32;;;;;;;1.70;0.82;;;1.80;99.90;;;;;;5076738;28;20451;-59
2021/01/08 01:59:59;;;;;;;1.80;0.80;;;1.70;99.90;;;;;;5074139;28;20510;-59
2021/01/08 02:02:30;;;;;;;2.20;0.88;;;1.60;99.90;;;;;;5072515;28;20420;-59
2021/01/08 02:04:58;;;;;;;2.60;1.10;;;1.50;99.90;;;;;;5074869;28;20423;-59
2021/01/08 02:07:27;;;;;;;2.38;1.00;;;1.40;99.90;;;;;;5073110;28;20434;-59
2021/01/08 02:09:56;;;;;;;2.20;0.90;;;1.50;99.90;;;;;;5072417;28;20490;-59
2021/01/08 02:12:23;;;;;;;1.50;0.80;;;1.50;99.90;;;;;;5073603;28;20435;-59
2021/01/08 02:14:50;;;;;;;2.20;1.00;;;1.40;99.90;;;;;;5073290;28;20762;-59
2021/01/08 02:17:18;;;;;;;2.30;0.90;;;1.40;99.90;;;;;;5073070;28;20842;-59
2021/01/08 02:19:48;;;;;;;2.38;0.90;;;1.40;99.90;;;;;;5072158;28;20752;-59
2021/01/08 02:22:22;;;;;;;1.80;0.80;;;1.40;99.90;;;;;;5074121;28;20434;-61
2021/01/08 02:25:04;;;;;;;2.10;0.82;;;1.40;99.90;;;;;;5072777;28;20450;-59
2021/01/08 02:27:32;;;;;;;2.30;0.70;;;1.70;99.90;;;;;;5073384;28;20518;-59
2021/01/08 02:29:59;;;;;;;1.73;0.70;;;1.80;99.90;;;;;;5072626;28;20428;-59
2021/01/08 02:32:26;;;;;;;1.33;0.70;;;1.90;99.90;;;;;;5072551;28;20492;-59
2021/01/08 02:34:53;;;;;;;2.40;0.80;;;2.10;99.90;;;;;;5072367;28;20455;-60
2021/01/08 02:37:20;;;;;;;1.40;0.70;;;1.90;99.90;;;;;;5073094;28;20427;-59
2021/01/08 02:39:47;;;;;;;1.38;0.80;;;1.80;99.90;;;;;;5061192;28;20484;-59
2021/01/08 02:42:15;;;;;;;1.67;0.80;;;1.70;99.90;;;;;;5065691;28;20428;-60
2021/01/08 02:44:42;;;;;;;1.70;0.77;;;1.80;99.90;;;;;;5062877;28;20420;-59
2021/01/08 02:47:09;;;;;;;1.20;0.70;;;1.80;99.90;;;;;;5064746;28;20480;-60
2021/01/08 02:49:35;;;;;;;1.70;0.70;;;1.90;99.90;;;;;;5069036;28;20426;-59
2021/01/08 02:52:05;;;;;;;1.80;0.75;;;1.90;99.90;;;;;;5073422;28;20452;-58
2021/01/08 02:54:32;;;;;;;1.10;0.70;;;1.80;99.90;;;;;;5074366;28;20842;-57
2021/01/08 02:57:01;;;;;;;2.67;0.80;;;1.80;99.90;;;;;;5074619;28;20433;-57
2021/01/08 02:59:29;;;;;;;1.77;0.85;;;1.90;99.90;;;;;;5074624;28;20424;-57
2021/01/08 03:01:56;;;;;;;1.52;0.80;;;1.90;99.90;;;;;;5074368;28;20446;-56
2021/01/08 03:04:22;;;;;;;1.70;0.90;;;1.90;99.90;;;;;;5073981;28;20479;-56
2021/01/08 03:06:52;;;;;;;1.33;0.90;;;1.80;99.90;;;;;;5073726;28;20431;-55
2021/01/08 03:09:19;;;;;;;1.90;0.90;;;1.70;99.90;;;;;;5073884;28;20738;-56
2021/01/08 03:11:53;;;;;;;1.60;0.80;;;1.60;99.90;;;;;;5072559;28;20435;-56
2021/01/08 03:14:20;;;;;;;2.45;1.10;;;1.50;99.90;;;;;;5072972;28;20419;-57
2021/01/08 03:16:48;;;;;;;2.10;0.90;;;1.50;99.90;;;;;;5073069;28;20626;-56
2021/01/08 03:19:14;;;;;;;3.10;1.00;;;1.40;99.90;;;;;;5072659;28;20735;-57
2021/01/08 03:21:40;;;;;;;2.20;1.08;;;1.30;99.90;;;;;;5073158;28;20423;-54
2021/01/08 03:24:08;;;;;;;2.00;1.10;;;1.30;99.90;;;;;;5073168;28;20459;-55
2021/01/08 03:26:34;;;;;;;2.08;0.98;;;1.30;99.90;;;;;;5074647;28;20434;-58
2021/01/08 03:29:01;;;;;;;3.20;1.00;;;1.20;99.90;;;;;;5074265;28;20792;-56
2021/01/08 03:31:27;;;;;;;2.53;1.00;;;1.30;99.90;;;;;;5074049;28;20526;-55
2021/01/08 03:33:54;;;;;;;1.60;0.90;;;1.40;99.90;;;;;;5074021;28;20484;-56
2021/01/08 03:36:21;;;;;;;2.10;0.90;;;1.40;99.90;;;;;;5074560;28;20505;-55
2021/01/08 03:38:47;;;;;;;1.53;0.80;;;1.40;99.90;;;;;;5073035;28;20435;-56
2021/01/08 03:41:13;;;;;;;1.52;0.80;;;1.50;99.90;;;;;;5073554;28;20451;-57
2021/01/08 03:43:41;;;;;;;2.30;0.90;;;1.60;99.90;;;;;;5073756;28;20426;-55
2021/01/08 03:46:07;;;;;;;2.03;0.90;;;1.60;99.90;;;;;;5072992;28;20719;-56
2021/01/08 03:48:34;;;;;;;2.35;0.90;;;1.60;99.90;;;;;;5071558;28;20411;-56
2021/01/08 03:51:01;;;;;;;2.10;1.00;;;1.50;99.90;;;;;;5072240;28;20430;-55
2021/01/08 03:53:28;;;;;;;1.83;0.90;;;1.50;99.90;;;;;;5071309;28;20427;-56
2021/01/08 03:55:55;;;;;;;1.50;0.90;;;1.40;99.90;;;;;;5071744;28;20419;-55
2021/01/08 03:58:21;;;;;;;1.40;0.90;;;1.40;99.90;;;;;;5071836;28;20426;-57
2021/01/08 04:00:47;;;;;;;2.90;0.90;;;1.40;99.90;;;;;;5073175;28;20478;-57
2021/01/08 04:03:13;;;;;;;3.13;1.00;;;1.40;99.90;;;;;;5073703;28;20490;-57
2021/01/08 04:05:40;;;;;;;3.20;1.00;;;1.40;99.90;;;;;;5073793;28;20720;-57
2021/01/08 04:08:07;;;;;;;2.75;0.90;;;1.50;99.90;;;;;;5073668;28;20461;-57
2021/01/08 04:10:33;;;;;;;2.00;0.97;;;1.60;99.90;;;;;;5073473;28;20483;-55
2021/01/08 04:12:59;;;;;;;1.60;0.80;;;1.70;99.90;;;;;;5073199;28;20435;-55
2021/01/08 04:15:26;;;;;;;2.10;0.90;;;1.60;99.90;;;;;;5073827;28;20428;-56
2021/01/08 04:17:52;;;;;;;1.88;0.90;;;1.60;99.90;;;;;;5072537;28;20431;-55
2021/01/08 04:20:19;;;;;;;2.75;1.10;;;1.60;99.90;;;;;;5070788;28;20419;-57
2021/01/08 04:22:45;;;;;;;2.28;0.90;;;1.50;99.90;;;;;;5072333;28;20860;-58
2021/01/08 04:25:13;;;;;;;2.05;1.00;;;1.40;99.90;;;;;;5070661;28;20454;-56
2021/01/08 04:27:40;;;;;;;1.90;0.90;;;1.30;99.90;;;;;;5072181;28;20636;-56
2021/01/08 04:30:07;;;;;;;2.17;1.00;;;1.20;99.90;;;;;;5072393;28;20427;-56
2021/01/08 04:32:34;;;;;;;2.33;1.07;;;1.20;99.90;;;;;;5073082;28;20548;-57
2021/01/08 04:35:00;;;;;;;1.90;1.00;;;1.20;99.90;;;;;;5072790;28;20415;-56
2021/01/08 04:37:26;;;;;;;2.65;0.95;;;1.10;99.90;;;;;;5072963;28;20448;-56
2021/01/08 04:39:53;;;;;;;2.30;0.90;;;1.10;99.90;;;;;;5072283;28;20423;-54
2021/01/08 04:42:20;;;;;;;2.60;0.90;;;1.20;99.90;;;;;;5072772;28;20881;-55
2021/01/08 04:44:46;;;;;;;2.70;0.88;;;1.20;99.90;;;;;;5072889;28;20419;-55
2021/01/08 04:47:15;;;;;;;2.60;0.90;;;1.30;99.90;;;;;;5072545;28;20430;-56
2021/01/08 04:49:42;;;;;;;1.38;0.80;;;1.40;99.90;;;;;;5073114;28;20730;-57
2021/01/08 04:52:10;;;;;;;2.00;0.90;;;1.40;99.90;;;;;;5073172;28;20727;-57
2021/01/08 04:54:37;;;;;;;2.60;0.95;;;1.40;99.90;;;;;;5072299;28;20439;-58
2021/01/08 04:57:06;;;;;;;2.13;0.80;;;1.30;99.90;;;;;;5072236;28;20432;-55
2021/01/08 04:59:34;;;;;;;2.60;0.90;;;1.20;99.90;;;;;;5070748;28;20423;-57
2021/01/08 05:02:00;;;;;;;1.77;0.90;;;1.20;99.90;;;;;;5071566;28;20557;-52
2021/01/08 05:04:27;;;;;;;1.60;0.90;;;1.20;99.90;;;;;;5071975;28;20922;-56
2021/01/08 05:06:53;;;;;;;2.50;1.00;;;1.20;99.90;;;;;;5074514;28;20489;-56
2021/01/08 05:09:20;;;;;;;2.60;1.00;;;1.20;99.90;;;;;;5073879;28;20420;-61
2021/01/08 05:11:46;;;;;;;3.17;0.90;;;1.20;99.90;;;;;;5075507;28;20429;-56
2021/01/08 05:14:15;;;;;;;3.00;1.10;;;1.20;99.90;;;;;;5075022;28;20419;-56
2021/01/08 05:16:42;;;;;;;2.55;1.00;;;1.10;99.90;;;;;;5075994;28;20435;-52
2021/01/08 05:19:09;;;;;;;2.10;0.98;;;1.10;99.90;;;;;;5076316;28;20420;-53
2021/01/08 05:21:35;;;;;;;1.58;0.80;;;1.10;99.90;;;;;;5076227;28;20428;-57
2021/01/08 05:24:03;;;;;;;2.27;0.90;;;1.20;99.90;;;;;;5075784;28;20411;-56
2021/01/08 05:26:30;;;;;;;1.80;0.90;;;1.20;99.90;;;;;;5075350;28;20441;-55
2021/01/08 05:28:57;;;;;;;2.50;0.90;;;1.20;99.90;;;;;;5076372;28;20513;-56
2021/01/08 05:31:25;;;;;;;1.80;1.00;;;1.30;99.90;;;;;;5076278;28;20823;-56
2021/01/08 05:33:53;;;;;;;1.40;0.95;;;1.30;99.90;;;;;;5074766;28;20735;-57
2021/01/08 05:36:20;;;;;;;1.70;0.80;;;1.40;99.90;;;;;;5074777;28;20428;-54
2021/01/08 05:38:48;;;;;;;1.70;0.90;;;1.40;99.90;;;;;;5074541;28;20514;-56
2021/01/08 05:41:15;;;;;;;1.80;0.90;;;1.40;99.90;;;;;;5074250;28;20432;-54
2021/01/08 05:43:43;;;;;;;2.63;0.80;;;1.50;99.90;;;;;;5073949;28;20750;-51
2021/01/08 05:46:16;;;;;;;1.93;0.90;;;1.50;99.90;;;;;;5074258;28;20427;-53
2021/01/08 05:48:45;;;;;;;1.77;0.77;;;1.50;99.90;;;;;;5072306;28;20419;-54
2021/01/08 05:51:17;;;;;;;1.45;0.80;;;1.60;99.90;;;;;;5074874;28;20438;-55
2021/01/08 05:53:46;;;;;;;1.90;0.88;;;1.60;99.90;;;;;;5073394;28;20785;-53
2021/01/08 05:56:19;;;;;;;2.00;0.70;;;1.60;99.90;;;;;;5074799;28;20427;-52
2021/01/08 05:58:47;;;;;;;2.25;0.73;;;1.50;99.90;;;;;;5073432;28;20415;-55
2021/01/08 06:01:14;;;;;;;1.50;0.80;;;1.50;99.90;;;;;;5074374;28;20496;-56
2021/01/08 06:03:42;;;;;;;1.70;0.90;;;1.50;99.90;;;;;;5074453;28;20780;-55
2021/01/08 06:06:09;;;;;;;1.38;0.73;;;1.50;99.90;;;;;;5074908;28;20423;-54
2021/01/08 06:08:42;;;;;;;1.50;0.90;;;1.40;99.90;;;;;;5074214;28;20424;-55
2021/01/08 06:11:18;;;;;;;1.30;0.80;;;1.30;99.90;;;;;;5072816;28;20535;-54
2021/01/08 06:13:45;;;;;;;1.80;0.80;;;1.30;99.90;;;;;;5071911;28;20866;-52
2021/01/08 06:16:17;;;;;;;1.45;0.60;;;1.30;99.90;;;;;;5064221;28;20842;-53
2021/01/08 06:18:43;;;;;;;1.48;0.90;;;1.30;99.90;;;;;;5072649;28;20514;-56
2021/01/08 06:21:10;;;;;;;1.33;0.80;;;1.30;99.90;;;;;;5072795;28;20472;-56
2021/01/08 06:23:39;;;;;;;1.50;0.80;;;1.40;99.90;;;;;;5074245;28;20481;-55
2021/01/08 06:26:07;;;;;;;1.50;0.70;;;1.40;99.90;;;;;;5074621;28;20574;-55
2021/01/08 06:28:39;;;;;;;2.35;0.70;;;1.40;99.90;;;;;;5074689;28;20444;-54
2021/01/08 06:31:10;;;;;;;1.60;0.80;;;1.50;99.90;;;;;;5073503;28;20497;-55
2021/01/08 06:33:38;;;;;;;1.42;0.70;;;1.50;99.90;;;;;;5073485;28;20449;-56
2021/01/08 06:36:18;;;;;;;2.10;0.80;;;1.50;99.90;;;;;;5074552;28;20419;-56
2021/01/08 06:38:48;;;;;;;1.40;0.80;;;1.50;99.90;;;;;;5073306;28;20957;-56
2021/01/08 06:41:16;;;;;;;1.20;0.70;;;1.50;99.90;;;;;;5073639;28;20518;-58
2021/01/08 06:43:50;;;;;;;1.60;0.80;;;1.50;99.90;;;;;;5074582;28;20427;-56
2021/01/08 06:46:33;;;;;;;1.98;0.70;;;1.50;99.90;;;;;;5074421;28;20431;-58
2021/01/08 06:49:02;;;;;;;1.20;0.70;;;1.60;99.90;;;;;;5073158;28;20431;-56
2021/01/08 06:51:30;;;;;;;2.10;0.80;;;1.60;99.90;;;;;;5074475;28;20427;-57
2021/01/08 06:54:00;;;;;;;1.60;0.73;;;1.70;99.90;;;;;;5074100;28;20508;-56
2021/01/08 06:56:32;;;;;;;1.60;0.70;;;1.60;99.90;;;;;;5073148;28;20518;-56
2021/01/08 06:58:59;;;;;;;1.67;0.73;;;1.60;99.90;;;;;;5076220;28;20428;-58
2021/01/08 07:01:53;;;;;;;2.00;0.70;;;1.70;99.90;;;;;;5072413;28;20953;-57
2021/01/08 07:04:23;;;;;;;1.50;0.70;;;1.70;99.90;;;;;;5065530;28;20430;-57
2021/01/08 07:06:50;;;;;;;1.50;0.70;;;1.80;99.90;;;;;;5074469;28;20826;-57
2021/01/08 07:09:17;;;;;;;1.40;0.80;;;1.70;99.90;;;;;;5073263;28;20422;-57
2021/01/08 07:11:51;;;;;;;1.80;0.70;;;1.60;99.90;;;;;;5072011;28;20506;-54
2021/01/08 07:14:22;;;;;;;1.60;0.80;;;1.60;99.90;;;;;;5073666;28;20438;-54
2021/01/08 07:16:49;;;;;;;1.80;0.80;;;1.50;99.90;;;;;;5071311;28;20885;-56
2021/01/08 07:19:19;;;;;;;1.80;0.75;;;1.50;99.90;;;;;;5070535;28;20429;-55
2021/01/08 07:21:47;;;;;;;1.83;0.80;;;1.50;99.90;;;;;;5072526;28;20438;-54
2021/01/08 07:24:15;;;;;;;1.50;0.80;;;1.50;99.90;;;;;;5070383;28;20738;-52
2021/01/08 07:26:43;;;;;;;2.67;0.90;;;1.40;99.90;;;;;;5071680;28;20435;-54
2021/01/08 07:29:10;;;;;;;1.58;0.80;;;1.50;99.90;;;;;;5070889;28;20854;-55
2021/01/08 07:31:38;;;;;;;1.45;0.85;;;1.40;99.90;;;;;;5063170;28;20951;-55
2021/01/08 07:34:06;;;;;;;1.55;0.70;;;1.40;99.90;;;;;;5071268;28;20433;-56
2021/01/08 07:36:33;;;;;;;1.98;0.70;;;1.50;99.90;;;;;;5071390;28;20423;-55
2021/01/08 07:39:00;;;;;;;1.70;0.75;;;1.50;99.90;;;;;;5071131;28;20492;-53
2021/01/08 07:41:34;;;;;;;1.35;0.68;;;1.50;99.90;;;;;;5072101;28;20750;-54
2021/01/08 07:44:02;;;;;;;1.85;0.70;;;1.50;99.90;;;;;;5071243;28;20426;-54
2021/01/08 07:46:30;;;;;;;1.50;0.80;;;1.50;99.90;;;;;;5072142;28;20821;-53
2021/01/08 07:48:58;;;;;;;2.60;0.73;;;1.40;99.90;;;;;;5070989;28;20434;-57
2021/01/08 07:51:44;;;;;;;1.40;0.90;;;1.50;99.90;;;;;;5072930;28;20801;-57
2021/01/08 07:54:11;;;;;;;1.83;0.80;;;1.50;99.90;;;;;;5071861;28;20431;-58
2021/01/08 07:57:05;;;;;;;2.60;1.00;;;1.50;99.90;;;;;;5071816;28;20435;-55
2021/01/08 07:59:31;;;;;;;2.70;0.90;;;1.50;99.90;;;;;;5071178;28;20750;-57
2021/01/08 08:01:58;;;;;;;2.00;0.80;;;1.50;99.90;;;;;;5073013;28;20611;-57
2021/01/08 08:04:28;;;;;;;1.42;0.80;;;1.60;99.90;;;;;;5072320;28;20412;-57
2021/01/08 08:06:56;;;;;;;1.50;0.80;;;1.60;99.90;;;;;;5072870;28;20447;-58
2021/01/08 08:09:23;;;;;;;1.98;0.80;;;1.60;99.90;;;;;;5072426;28;20423;-59
2021/01/08 08:11:49;;;;;;;2.27;1.10;;;1.60;99.90;;;;;;5071403;28;20422;-58
2021/01/08 08:14:18;;;;;;;1.50;0.70;;;1.70;99.90;;;;;;5071814;28;20434;-58
2021/01/08 08:16:45;;;;;;;2.00;0.70;;;1.80;99.90;;;;;;5071754;28;20435;-58
2021/01/08 08:19:13;;;;;;;1.50;0.70;;;1.70;99.90;;;;;;5071747;28;20472;-51
2021/01/08 08:21:47;;;;;;;1.50;0.70;;;1.70;99.90;;;;;;5072729;28;20430;-57
2021/01/08 08:24:16;;;;;;;1.60;0.80;;;1.80;99.90;;;;;;5072033;28;20854;-56
2021/01/08 08:26:44;;;;;;;1.40;0.80;;;1.80;99.90;;;;;;5072910;28;20444;-56
2021/01/08 08:29:11;;;;;;;1.40;0.70;;;1.80;99.90;;;;;;5071112;28;20416;-56
2021/01/08 08:31:40;;;;;;;1.58;0.77;;;1.70;99.90;;;;;;5070717;28;20492;-57
2021/01/08 08:34:08;;;;;;;1.30;0.70;;;1.70;99.90;;;;;;5071453;28;20530;-57
2021/01/08 08:36:35;;;;;;;2.00;0.80;;;1.70;99.90;;;;;;5068908;28;20504;-54
2021/01/08 08:39:04;;;;;;;1.77;0.80;;;1.80;99.90;;;;;;5068275;28;20419;-56
2021/01/08 08:41:32;;;;;;;2.55;0.73;;;1.80;99.90;;;;;;5073514;28;20441;-56
2021/01/08 08:44:06;;;;;;;2.90;0.80;;;1.80;99.90;;;;;;5072347;28;20416;-56
2021/01/08 08:46:44;;;;;;;1.20;0.80;;;1.90;99.90;;;;;;5065598;28;20439;-58
2021/01/08 08:49:12;;;;;;;1.50;0.70;;;2.30;99.90;;;;;;5065742;28;20432;-59
2021/01/08 08:51:45;;;;;;;1.05;0.70;;;2.40;99.90;;;;;;5074800;28;20457;-59
2021/01/08 08:54:12;;;;;;;1.35;0.70;;;2.30;99.90;;;;;;5073093;28;20423;-57
2021/01/08 08:56:48;;;;;;;1.58;0.70;;;2.10;99.90;;;;;;5072997;28;20433;-55
2021/01/08 08:59:15;;;;;;;1.57;0.67;;;2.10;99.90;;;;;;5066997;28;20446;-57
2021/01/08 09:01:43;;;;;;;1.10;0.60;;;2.10;99.90;;;;;;5066815;28;20568;-55
2021/01/08 09:04:10;;;;;;;2.00;0.70;;;2.10;99.90;;;;;;5067854;28;20428;-58
2021/01/08 09:06:39;;;;;;;1.30;0.70;;;2.50;99.90;;;;;;5055584;28;20512;-58
2021/01/08 09:09:16;;;;;;;1.80;0.60;;;2.40;99.90;;;;;;5054908;28;20423;-58
2021/01/08 09:11:53;;;;;;;2.10;0.60;;;2.40;99.90;;;;;;5069150;28;20451;-58
2021/01/08 09:14:24;;;;;;;1.17;0.60;;;2.40;99.90;;;;;;5071935;28;20432;-58
2021/01/08 09:16:53;;;;;;;2.05;0.60;;;2.40;99.90;;;;;;5065442;28;20448;-56
2021/01/08 09:19:25;;;;;;;1.70;0.50;;;2.40;99.90;;;;;;5062767;28;20414;-58
2021/01/08 09:21:52;;;;;;;6.03;0.80;;;2.40;99.90;;;;;;5086012;28;20752;-56
2021/01/08 09:24:22;;;;;;;5.32;0.60;;;2.90;99.90;;;;;;5073505;28;20431;-56
2021/01/08 09:26:49;;;;;;;0.85;0.50;;;3.40;99.90;;;;;;5056582;28;20437;-57
2021/01/08 09:29:28;;;;;;;0.93;0.50;;;3.50;99.90;;;;;;5059070;28;20419;-56
2021/01/08 09:31:56;;;;;;;0.95;0.40;;;3.50;99.90;;;;;;5064639;28;20431;-58
2021/01/08 09:34:23;;;;;;;0.75;0.40;;;3.60;99.90;;;;;;5058801;28;20425;-57
2021/01/08 09:36:51;;;;;;;0.75;0.40;;;3.50;99.90;;;;;;5064893;28;20443;-60
2021/01/08 09:39:18;;;;;;;0.95;0.40;;;3.40;99.90;;;;;;5053793;28;20422;-58
2021/01/08 09:41:54;;;;;;;1.30;0.43;;;3.40;99.90;;;;;;5055201;28;20488;-59
2021/01/08 09:44:20;;;;;;;1.60;0.70;;;3.40;99.90;;;;;;5063983;28;20481;-58
2021/01/08 09:46:51;;;;;;;0.85;0.40;;;3.30;99.90;;;;;;5069038;28;20437;-58
2021/01/08 09:49:19;;;;;;;0.70;0.40;;;3.00;99.90;;;;;;5053454;28;20844;-58
2021/01/08 09:51:45;;;;;;;0.80;0.40;;;3.00;99.90;;;;;;5056586;28;20682;-59
2021/01/08 09:54:11;;;;;;;0.85;0.50;;;2.80;99.90;;;;;;5073581;28;20431;-57
2021/01/08 09:56:38;;;;;;;0.70;0.30;;;2.80;99.90;;;;;;5054497;28;20880;-58
2021/01/08 09:59:12;;;;;;;0.80;0.40;;;2.60;99.90;;;;;;5054372;28;20421;-60
2021/01/08 10:01:53;;;;;;;0.70;0.40;;;2.70;99.90;;;;;;5054134;28;20860;-55
2021/01/08 10:04:31;;;;;;;1.10;0.40;;;3.00;99.90;;;;;;5068328;28;20423;-58
2021/01/08 10:07:01;;;;;;;1.77;0.40;;;3.50;99.90;;;;;;5073525;28;20534;-59
2021/01/08 10:09:43;;;;;;;0.80;0.40;;;3.70;99.90;;;;;;5071854;28;20428;-58
2021/01/08 10:12:10;;;;;;;0.90;0.50;;;4.30;99.90;;;;;;5071002;28;20423;-59
2021/01/08 10:14:36;;;;;;;0.90;0.50;;;4.10;99.90;;;;;;5073108;28;20423;-57
2021/01/08 10:17:10;;;;;;;1.00;0.50;;;3.60;99.90;;;;;;5070971;28;20442;-57
2021/01/08 10:19:39;;;;;;;1.20;0.60;;;3.40;99.90;;;;;;5066686;28;20423;-57
2021/01/08 10:22:05;;;;;;;1.40;0.60;;;3.30;99.90;;;;;;5068472;28;20431;-57
2021/01/08 10:24:32;;;;;;;1.10;0.50;;;3.50;99.90;;;;;;5053737;28;20424;-57
2021/01/08 10:26:58;;;;;;;1.00;0.50;;;3.30;99.90;;;;;;5055241;28;20877;-56
2021/01/08 10:29:35;;;;;;;1.40;0.50;;;3.10;99.90;;;;;;5064306;28;20469;-59
2021/01/08 10:32:08;;;;;;;0.90;0.40;;;3.20;99.90;;;;;;5078224;28;20436;-57
2021/01/08 10:34:40;;;;;;;0.85;0.50;;;3.60;99.90;;;;;;5088190;28;20420;-55
2021/01/08 10:37:14;;;;;;;0.90;0.40;;;3.50;99.90;;;;;;5059240;28;20457;-56
2021/01/08 10:39:40;;;;;;;2.45;0.68;;;3.50;99.90;;;;;;5053629;28;20726;-57
2021/01/08 10:42:06;;;;;;;1.90;0.70;;;3.80;99.90;;;;;;5058929;28;20442;-54
2021/01/08 10:44:33;;;;;;;1.50;0.60;;;4.20;99.90;;;;;;5079166;28;20543;-56
2021/01/08 10:46:59;;;;;;;0.90;0.50;;;4.90;99.90;;;;;;5067473;28;20526;-54
2021/01/08 10:49:25;;;;;;;0.68;0.40;;;4.60;99.90;;;;;;5067641;28;20530;-57
2021/01/08 10:51:53;;;;;;;1.10;0.60;;;4.20;99.90;;;;;;5064591;28;20450;-54
2021/01/08 10:54:19;;;;;;;1.10;0.50;;;4.40;99.90;;;;;;5071811;28;20435;-58
2021/01/08 10:56:45;;;;;;;0.90;0.50;;;4.70;99.90;;;;;;5070059;28;20889;-57
2021/01/08 10:59:13;;;;;;;0.80;0.50;;;4.40;99.90;;;;;;5070953;28;20459;-56
2021/01/08 11:01:45;;;;;;;1.00;0.50;;;4.40;99.90;;;;;;5071568;28;20532;-57
2021/01/08 11:04:12;;;;;;;1.27;0.60;;;4.30;99.90;;;;;;5070488;28;20423;-57
2021/01/08 11:06:39;;;;;;;1.45;0.70;;;4.50;99.90;;;;;;5070137;28;20542;-54
2021/01/08 11:09:06;;;;;;;0.90;0.50;;;4.60;99.90;;;;;;5072374;28;20851;-55
2021/01/08 11:11:33;;;;;;;0.90;0.57;;;4.40;99.90;;;;;;5071450;28;20435;-57
2021/01/08 11:13:59;;;;;;;1.00;0.50;;;4.30;99.90;;;;;;5071146;28;20518;-53
2021/01/08 11:16:25;;;;;;;0.80;0.50;;;4.30;99.90;;;;;;5070924;28;20465;-55
2021/01/08 11:18:51;;;;;;;1.10;0.50;;;4.40;99.90;;;;;;5070951;28;20422;-53
2021/01/08 11:21:19;;;;;;;0.90;0.50;;;4.20;99.90;;;;;;5073543;28;20481;-55
2021/01/08 11:23:46;;;;;;;1.38;0.80;;;4.10;99.90;;;;;;5071453;28;20420;-54
2021/01/08 11:26:13;;;;;;;1.20;0.60;;;3.80;99.90;;;;;;5071328;28;20489;-55
2021/01/08 11:28:39;;;;;;;0.88;0.50;;;4.00;99.90;;;;;;5070656;28;20526;-54
2021/01/08 11:31:06;;;;;;;1.07;0.57;;;4.50;99.90;;;;;;5071409;28;20488;-56
2021/01/08 11:33:32;;;;;;;1.70;0.50;;;4.30;99.90;;;;;;5067770;28;20539;-54
2021/01/08 11:35:58;;;;;;;0.80;0.50;;;3.90;99.90;;;;;;5067614;28;20734;-58
2021/01/08 11:38:25;;;;;;;0.80;0.50;;;3.70;99.90;;;;;;5068919;28;20902;-57
2021/01/08 11:40:51;;;;;;;1.20;0.60;;;3.50;99.90;;;;;;5068699;28;20453;-56
2021/01/08 11:43:18;;;;;;;1.30;0.50;;;3.50;99.90;;;;;;5070226;28;20419;-57
2021/01/08 11:45:45;;;;;;;0.95;0.50;;;3.60;99.90;;;;;;5068563;28;20433;-56
2021/01/08 11:48:12;;;;;;;1.08;0.60;;;3.90;99.90;;;;;;5070145;28;20428;-58
2021/01/08 11:50:38;;;;;;;1.40;0.60;;;4.40;99.90;;;;;;5071091;28;20430;-56
2021/01/08 11:53:05;;;;;;;1.67;0.60;;;4.60;99.90;;;;;;5069913;28;20440;-58
2021/01/08 11:55:31;;;;;;;0.90;0.60;;;4.90;99.90;;;;;;5071288;28;20911;-58
2021/01/08 11:58:00;;;;;;;0.80;0.50;;;5.20;99.90;;;;;;5069849;28;20435;-58
2021/01/08 12:00:27;;;;;;;2.78;0.50;;;5.00;99.90;;;;;;5071590;28;20428;-59
2021/01/08 12:02:53;;;;;;;1.30;0.60;;;4.90;99.90;;;;;;5067842;28;20933;-58
2021/01/08 12:05:20;;;;;;;1.40;0.50;;;4.70;99.90;;;;;;5068542;28;20727;-58
2021/01/08 12:07:46;;;;;;;0.90;0.40;;;4.60;99.90;;;;;;5066264;28;20435;-58
2021/01/08 12:10:30;;;;;;;0.70;0.50;;;4.40;99.90;;;;;;5067883;28;20427;-58
2021/01/08 12:12:56;;;;;;;1.80;0.60;;;4.60;99.90;;;;;;5063423;28;21086;-56
2021/01/08 12:15:22;;;;;;;0.90;0.50;;;4.40;99.90;;;;;;5064256;28;20431;-58
2021/01/08 12:17:50;;;;;;;1.30;0.60;;;4.10;99.90;;;;;;5063237;28;20439;-58
2021/01/08 12:20:17;;;;;;;1.10;0.60;;;4.10;99.90;;;;;;5066193;28;21132;-58
2021/01/08 12:22:43;;;;;;;1.08;0.60;;;4.10;99.90;;;;;;5066108;28;20542;-58
2021/01/08 12:25:11;;;;;;;1.40;0.60;;;4.20;99.90;;;;;;5060308;28;20832;-57
2021/01/08 12:27:37;;;;;;;0.82;0.50;;;4.20;99.90;;;;;;5065336;28;20706;-56
2021/01/08 12:30:05;;;;;;;1.67;0.50;;;4.30;99.90;;;;;;5063753;28;20753;-58
2021/01/08 12:32:32;;;;;;;1.20;0.50;;;4.00;99.90;;;;;;5066526;28;20702;-57
2021/01/08 12:34:59;;;;;;;3.50;0.60;;;4.00;99.90;;;;;;5066590;28;20472;-56
2021/01/08 12:37:25;;;;;;;1.30;0.60;;;4.10;99.90;;;;;;5049541;28;20433;-57
2021/01/08 12:39:51;;;;;;;0.93;0.50;;;4.10;99.90;;;;;;5068207;28;20846;-58
2021/01/08 12:42:18;;;;;;;0.90;0.50;;;3.90;99.90;;;;;;5069424;28;20493;-56
2021/01/08 12:44:44;;;;;;;1.23;0.68;;;3.80;99.90;;;;;;5050727;28;20440;-57
2021/01/08 12:47:10;;;;;;;1.60;0.68;;;3.60;99.90;;;;;;5055744;28;20858;-58
2021/01/08 12:49:37;;;;;;;1.00;0.60;;;3.70;99.90;;;;;;5055445;28;20425;-56
2021/01/08 12:52:05;;;;;;;1.20;0.60;;;3.70;99.90;;;;;;5050962;28;20428;-58
2021/01/08 12:54:31;;;;;;;1.15;0.60;;;3.80;99.90;;;;;;5070679;28;20458;-59
2021/01/08 12:56:57;;;;;;;1.33;0.70;;;4.00;99.90;;;;;;5069316;28;20427;-58
2021/01/08 12:59:24;;;;;;;1.10;0.60;;;4.00;99.90;;;;;;5070950;28;20430;-56
2021/01/08 13:01:55;;;;;;;1.10;0.60;;;4.00;99.90;;;;;;5051804;28;20440;-57
2021/01/08 13:04:21;;;;;;;1.30;0.60;;;3.90;99.90;;;;;;5064922;28;20416;-58